Aeroporto :
LOGIN :

Iscrizione | Disclaimer

   EN    FR    IT 

 










Sommario :    VFR   VFR Marginale   IFR   IFR Intensivo   IFR Molto Intensivo
Visibilità : 
Base nubi : 
>= 8 km
>= 3000ft
5 / 8 km
1000 / 3000 ft
1500m / 5 km
500 / 1000 ft
800 / 1500m
200 / 500 ft
< 800m
< 200 ft
Simboli :   Temporali  Nebbia  Neve Forte  Precipitazioni Forti  Vento > 20 kt
SIGMETs :   Varie  Temporali  Ghiacco  Turbolenza  Onda orograficha  Ceneri Vulcaniche






- Altitudine del aeroporto : 42 ft
- Codice IATA : LMO


EGQS - Lossiemouth

ULTIMO METAR :
  • 121050Z 01019KT 9999 -SHRA SCT011 OVC020 07/06 Q0995 RERA TEMPO FEW011 BKN025 RMK GRN TEMPO BLU

METARs OBSOLETI :
  • 121022Z 02018KT 9999 -RA SCT016 OVC034 07/06 Q0995 RERA TEMPO 6000 RA SCT014 RMK WHT TEMPO GRN
  • 120950Z 02020KT 9999 -RA FEW011 SCT016 BKN032 07/05 Q0995 TEMPO 6000 RA SCT014 RMK WHT TEMPO GRN
  • 120921Z 03020KT 9999 -SHRA FEW013 SCT016 BKN035 08/06 Q0994 TEMPO 6000 SHRA SCT014 RMK WHT TEMPO GRN
  • 120850Z 03023KT 9999 SCT016 BKN034 08/05 Q0994 TEMPO 6000 SHRA SCT014 RMK WHT TEMPO GRN
  • 120825Z 03022KT 9999 SCT016 BKN021 08/06 Q0993 TEMPO 6000 SHRA SCT014 RMK WHT TEMPO GRN

TAF TAF EGQS
Valido dal 12 a 09 ore il 13 a 03 ore UTC


120717Z 1209/1303 03025G35KT 9999 FEW015 BKN025
TEMPO 1209/1214 4000 SHGS BKN012CB
BECMG 1213/1215 36015G25KT
PROB30
TEMPO 1214/1303 7000 SHRA SCT020
BECMG 1216/1218 34014KT



MetMap, La meteo Aeronautica in un colpo d'occhio ! - Copyright ORBIFLY Dicembre 2007 - Disclaimer

ORBIFLY MET'MAP TEAM :

Programmazione e sviluppo : Alexandra Zaïnal
Concezione e sviluppo : Baudouin d'Aumeries
Co-Programmazione e sviluppo : Marc-Olivier Méhu
Supporto tecnico e logistico : Manuel Goepfert
Aiuto per la traduzione : Arnaldo La Scala

Contatto : metmap@orbifly.com




FONTI E CREDITI :

   NOAA